createdAt,value
2023-05-11T00:03:10.540Z,8.30
2023-05-11T00:07:12.256Z,8.82
2023-05-11T00:11:13.786Z,8.18
2023-05-11T00:15:15.502Z,8.00
2023-05-11T00:19:17.341Z,8.48
2023-05-11T00:23:18.775Z,8.63
2023-05-11T00:27:20.283Z,8.65
2023-05-11T00:31:21.802Z,8.52
2023-05-11T00:35:23.453Z,8.63
2023-05-11T00:39:24.874Z,9.10
2023-05-11T00:43:27.852Z,8.60
2023-05-11T00:47:29.386Z,7.85
2023-05-11T00:51:32.602Z,7.53
2023-05-11T00:55:34.270Z,7.80
2023-05-11T00:59:35.961Z,7.53
2023-05-11T01:03:38.160Z,7.22
2023-05-11T01:07:59.888Z,8.00
2023-05-11T01:12:14.198Z,7.68
2023-05-11T01:16:20.962Z,8.25
2023-05-11T01:20:27.189Z,7.13
2023-05-11T01:24:48.840Z,7.82
2023-05-11T01:29:11.597Z,8.38
2023-05-11T01:33:15.063Z,7.18
2023-05-11T01:37:22.422Z,8.25
2023-05-11T01:41:28.110Z,7.82
2023-05-11T01:45:32.967Z,8.07
2023-05-11T01:49:38.848Z,8.93
2023-05-11T01:53:42.290Z,8.25
2023-05-11T01:57:44.967Z,8.75
2023-05-11T02:01:47.049Z,8.60
2023-05-11T02:05:50.154Z,9.15
2023-05-11T02:09:53.401Z,8.43
2023-05-11T02:13:58.339Z,9.68
2023-05-11T02:18:00.224Z,9.70
2023-05-11T02:22:03.087Z,9.95
2023-05-11T02:26:06.615Z,10.07
2023-05-11T02:30:09.155Z,9.75
2023-05-11T02:34:23.478Z,11.05
2023-05-11T02:38:35.589Z,10.43
2023-05-11T02:42:39.107Z,10.75
2023-05-11T02:46:42.124Z,10.15
2023-05-11T02:50:44.060Z,11.00
2023-05-11T02:54:45.778Z,9.95
2023-05-11T02:58:48.406Z,11.10
2023-05-11T03:02:52.594Z,10.93
2023-05-11T03:06:54.192Z,10.30
2023-05-11T03:10:57.869Z,10.85
2023-05-11T03:15:00.895Z,11.13
2023-05-11T03:19:06.440Z,10.77
2023-05-11T03:23:09.065Z,11.43
2023-05-11T03:27:11.702Z,12.10
2023-05-11T03:31:14.478Z,11.75
2023-05-11T03:35:16.642Z,11.93
2023-05-11T03:39:19.676Z,11.90
2023-05-11T03:43:22.181Z,10.65
2023-05-11T03:47:26.198Z,9.77
2023-05-11T03:51:27.802Z,10.07
2023-05-11T03:55:29.318Z,8.52
2023-05-11T03:59:30.825Z,8.80
2023-05-11T04:03:32.481Z,7.43
2023-05-11T04:07:34.112Z,7.95
2023-05-11T04:11:39.045Z,7.60
2023-05-11T04:15:40.543Z,7.03
2023-05-11T04:19:42.007Z,8.07
2023-05-11T04:23:43.531Z,8.05
2023-05-11T04:27:44.975Z,7.80
2023-05-11T04:31:46.436Z,7.82
2023-05-11T04:35:50.858Z,7.03
2023-05-11T04:39:52.360Z,7.30
2023-05-11T04:43:53.801Z,7.20
2023-05-11T04:47:55.330Z,7.10
2023-05-11T04:51:57.157Z,7.03
2023-05-11T04:55:58.584Z,6.97
2023-05-11T05:00:00.450Z,7.03
2023-05-11T05:04:02.383Z,6.72
2023-05-11T05:08:03.831Z,6.72
2023-05-11T05:12:05.633Z,6.70
2023-05-11T05:16:07.243Z,6.47
2023-05-11T05:20:09.006Z,6.28
2023-05-11T05:24:12.145Z,5.97
2023-05-11T05:28:13.572Z,6.40
2023-05-11T05:32:15.030Z,5.40
2023-05-11T05:36:16.499Z,5.43
2023-05-11T05:40:18.363Z,5.68
2023-05-11T05:44:20.137Z,5.63
2023-05-11T05:48:21.598Z,5.47
2023-05-11T05:52:23.090Z,5.25
2023-05-11T05:56:24.528Z,5.35
2023-05-11T06:00:26.060Z,5.20
2023-05-11T06:04:27.545Z,5.30
2023-05-11T06:08:29.068Z,4.78
2023-05-11T06:12:31.147Z,5.00
2023-05-11T06:16:32.851Z,4.50
2023-05-11T06:20:34.324Z,4.93
2023-05-11T06:24:35.772Z,3.95
2023-05-11T06:28:37.264Z,4.10
2023-05-11T06:32:38.742Z,4.20
2023-05-11T06:36:40.310Z,4.57
2023-05-11T06:40:41.858Z,3.78
2023-05-11T06:44:43.362Z,4.03
2023-05-11T06:48:44.823Z,3.20
2023-05-11T06:52:46.259Z,3.60
2023-05-11T06:56:47.719Z,3.60
2023-05-11T07:00:49.230Z,3.30
2023-05-11T07:04:50.716Z,3.10
2023-05-11T07:08:52.279Z,3.22
2023-05-11T07:12:53.753Z,3.72
2023-05-11T07:16:55.389Z,3.28
2023-05-11T07:20:56.871Z,2.95
2023-05-11T07:24:59.963Z,3.50
2023-05-11T07:29:01.523Z,3.13
2023-05-11T07:33:03.294Z,3.05
2023-05-11T07:37:04.790Z,2.80
2023-05-11T07:41:07.395Z,2.97
2023-05-11T07:45:10.378Z,2.70
2023-05-11T07:49:17.148Z,2.80
2023-05-11T07:53:24.307Z,2.90
2023-05-11T07:57:25.936Z,3.35
2023-05-11T08:01:27.493Z,2.90
2023-05-11T08:05:30.334Z,2.60
2023-05-11T08:09:32.295Z,2.97
2023-05-11T08:13:34.458Z,2.80
2023-05-11T08:17:36.467Z,2.45
2023-05-11T08:21:38.459Z,3.03
2023-05-11T08:25:39.936Z,3.10
2023-05-11T08:29:41.355Z,3.00
2023-05-11T08:33:42.856Z,3.92
2023-05-11T08:37:44.562Z,2.67
2023-05-11T08:41:46.423Z,2.65
2023-05-11T08:45:54.883Z,3.38
2023-05-11T08:49:58.065Z,3.20
2023-05-11T08:54:00.037Z,2.50
2023-05-11T08:58:05.262Z,2.60
2023-05-11T09:02:07.316Z,2.53
2023-05-11T09:06:10.723Z,2.92
2023-05-11T09:10:13.785Z,2.88
2023-05-11T09:14:15.638Z,2.60
2023-05-11T09:18:17.060Z,3.45
2023-05-11T09:22:18.676Z,2.85
2023-05-11T09:26:21.700Z,2.58
2023-05-11T09:30:23.950Z,2.63
2023-05-11T09:34:25.516Z,3.03
2023-05-11T09:38:26.993Z,2.47
2023-05-11T09:42:30.093Z,2.47
2023-05-11T09:46:31.679Z,2.47
2023-05-11T09:50:34.895Z,2.33
2023-05-11T09:54:44.896Z,2.05
2023-05-11T09:58:50.959Z,2.10
2023-05-11T10:03:01.772Z,2.05
2023-05-11T10:07:06.611Z,1.80
2023-05-11T10:11:08.792Z,1.70
2023-05-11T10:15:11.056Z,2.00
2023-05-11T10:19:13.628Z,1.80
2023-05-11T10:23:16.443Z,1.85
2023-05-11T10:27:21.421Z,1.75
2023-05-11T10:31:24.536Z,1.60
2023-05-11T10:35:26.869Z,1.80
2023-05-11T10:39:31.217Z,2.22
2023-05-11T10:43:57.508Z,1.63
2023-05-11T10:48:14.154Z,2.17
2023-05-11T10:52:24.532Z,1.73
2023-05-11T10:56:28.843Z,1.67
2023-05-11T11:01:22.210Z,1.80
2023-05-11T11:05:38.669Z,1.50
2023-05-11T11:09:53.550Z,1.90
2023-05-11T11:14:01.470Z,1.70
2023-05-11T11:18:29.913Z,1.80
2023-05-11T11:22:41.537Z,1.73
2023-05-11T11:26:49.446Z,2.75
2023-05-11T11:31:22.939Z,2.35
2023-05-11T11:35:39.998Z,1.63
2023-05-11T11:39:41.803Z,2.00
2023-05-11T11:43:47.263Z,1.80
2023-05-11T11:48:06.965Z,1.67
2023-05-11T11:52:33.349Z,1.75
2023-05-11T11:56:39.982Z,1.83
2023-05-11T12:00:42.142Z,1.55
2023-05-11T12:04:56.172Z,2.03
2023-05-11T12:08:57.749Z,1.50
2023-05-11T12:13:00.146Z,1.50
2023-05-11T12:17:08.295Z,1.70
2023-05-11T12:21:23.789Z,1.80
2023-05-11T12:25:25.500Z,2.10
2023-05-11T12:29:27.267Z,1.70
2023-05-11T12:33:28.769Z,1.60
2023-05-11T12:37:31.274Z,1.60
2023-05-11T12:41:33.053Z,1.50
2023-05-11T12:45:34.820Z,1.50
2023-05-11T12:49:36.378Z,1.50
2023-05-11T12:53:39.534Z,1.60
2023-05-11T12:57:41.146Z,1.65
2023-05-11T13:01:42.677Z,4.05
2023-05-11T13:05:44.188Z,1.40
2023-05-11T13:09:59.467Z,2.00
2023-05-11T13:14:16.622Z,2.05
2023-05-11T13:18:18.518Z,1.40
2023-05-11T13:22:20.006Z,2.03
2023-05-11T13:26:30.367Z,1.52
2023-05-11T13:30:34.735Z,2.00
2023-05-11T13:34:37.286Z,1.73
2023-05-11T13:38:38.730Z,1.67
2023-05-11T13:42:41.517Z,1.60
2023-05-11T13:46:43.157Z,1.73
2023-05-11T13:50:44.947Z,1.60
2023-05-11T13:54:46.433Z,1.70
2023-05-11T13:58:47.955Z,1.50
2023-05-11T14:02:50.675Z,1.42
2023-05-11T14:06:52.259Z,1.60
2023-05-11T14:10:53.719Z,1.70
2023-05-11T14:14:55.212Z,1.67
2023-05-11T14:18:56.813Z,1.33
2023-05-11T14:22:59.124Z,1.40
2023-05-11T14:27:00.678Z,1.60
2023-05-11T14:31:02.371Z,1.58
2023-05-11T14:35:04.124Z,1.90
2023-05-11T14:39:05.666Z,1.63
2023-05-11T14:43:07.682Z,4.07
2023-05-11T14:47:09.284Z,1.67
2023-05-11T14:51:10.831Z,1.90
2023-05-11T14:55:12.558Z,1.60
2023-05-11T14:59:14.010Z,1.77
2023-05-11T15:03:15.585Z,1.70
2023-05-11T15:07:17.060Z,1.73
2023-05-11T15:11:19.004Z,1.55
2023-05-11T15:15:20.695Z,1.63
2023-05-11T15:19:22.170Z,1.65
2023-05-11T15:23:23.699Z,1.67
2023-05-11T15:27:25.167Z,1.40
2023-05-11T15:31:26.685Z,1.45
2023-05-11T15:35:28.141Z,1.63
2023-05-11T15:39:29.577Z,1.42
2023-05-11T15:43:31.110Z,1.65
2023-05-11T15:47:32.681Z,1.95
2023-05-11T15:51:34.266Z,1.27
2023-05-11T15:55:39.087Z,1.45
2023-05-11T15:59:40.592Z,1.55
2023-05-11T16:03:42.052Z,1.60
2023-05-11T16:07:43.777Z,1.48
2023-05-11T16:11:45.593Z,1.65
2023-05-11T16:15:47.089Z,1.70
2023-05-11T16:19:48.575Z,1.50
2023-05-11T16:23:50.027Z,1.60
2023-05-11T16:27:51.655Z,1.60
2023-05-11T16:31:53.377Z,1.30
2023-05-11T16:35:55.142Z,1.63
2023-05-11T16:39:56.623Z,1.52
2023-05-11T16:43:58.175Z,1.55
2023-05-11T16:47:59.683Z,3.90
2023-05-11T16:52:04.748Z,10.05
2023-05-11T16:56:06.347Z,2.17
2023-05-11T17:00:09.119Z,1.83
2023-05-11T17:04:13.379Z,1.83
2023-05-11T17:08:15.211Z,2.25
2023-05-11T17:12:16.666Z,1.77
2023-05-11T17:16:23.556Z,1.48
2023-05-11T17:20:25.291Z,1.90
2023-05-11T17:24:26.810Z,1.50
2023-05-11T17:28:28.355Z,1.80
2023-05-11T17:32:30.238Z,1.30
2023-05-11T17:36:32.429Z,1.42
2023-05-11T17:40:34.219Z,1.88
2023-05-11T17:44:36.583Z,1.70
2023-05-11T17:48:38.083Z,2.35
2023-05-11T17:52:39.540Z,1.88
2023-05-11T17:56:41.291Z,1.85
2023-05-11T18:00:48.971Z,2.63
2023-05-11T18:04:51.100Z,1.70
2023-05-11T18:08:52.613Z,1.73
2023-05-11T18:12:54.455Z,1.80
2023-05-11T18:16:56.332Z,2.10
2023-05-11T18:20:57.953Z,1.95
2023-05-11T18:24:59.604Z,1.83
2023-05-11T18:29:02.004Z,1.88
2023-05-11T18:33:03.603Z,2.53
2023-05-11T18:37:05.267Z,2.15
2023-05-11T18:41:08.494Z,4.30
2023-05-11T18:45:10.503Z,2.70
2023-05-11T18:49:12.190Z,2.17
2023-05-11T18:53:13.754Z,2.55
2023-05-11T18:57:18.738Z,2.85
2023-05-11T19:01:20.430Z,2.90
2023-05-11T19:05:22.389Z,2.20
2023-05-11T19:09:24.164Z,2.45
2023-05-11T19:13:25.647Z,2.72
2023-05-11T19:17:27.284Z,3.20
2023-05-11T19:21:28.928Z,2.47
2023-05-11T19:25:30.871Z,2.08
2023-05-11T19:29:32.624Z,2.20
2023-05-11T19:33:34.236Z,3.15
2023-05-11T19:37:35.876Z,4.95
2023-05-11T19:41:37.452Z,2.63
2023-05-11T19:45:39.230Z,2.85
2023-05-11T19:49:41.569Z,3.08
2023-05-11T19:53:43.503Z,2.63
2023-05-11T19:57:45.056Z,4.75
2023-05-11T20:01:46.868Z,3.17
2023-05-11T20:05:48.564Z,3.13
2023-05-11T20:09:50.304Z,4.90
2023-05-11T20:13:53.544Z,2.90
2023-05-11T20:17:55.384Z,2.50
2023-05-11T20:21:57.734Z,2.83
2023-05-11T20:25:59.362Z,2.53
2023-05-11T20:30:01.972Z,2.72
2023-05-11T20:38:07.964Z,2.88
2023-05-11T20:42:09.405Z,3.25
2023-05-11T20:46:11.521Z,2.95
2023-05-11T20:50:15.099Z,2.83
2023-05-11T20:54:16.871Z,2.95
2023-05-11T20:58:18.398Z,3.55
2023-05-11T21:02:20.063Z,3.03
2023-05-11T21:06:21.811Z,2.92
2023-05-11T21:10:24.099Z,2.80
2023-05-11T21:14:25.843Z,2.90
2023-05-11T21:18:32.087Z,2.90
2023-05-11T21:22:37.433Z,2.85
2023-05-11T21:26:38.888Z,3.03
2023-05-11T21:30:40.326Z,3.08
2023-05-11T21:34:42.483Z,3.17
2023-05-11T21:38:44.573Z,3.22
2023-05-11T21:42:46.211Z,3.08
2023-05-11T21:46:47.821Z,2.90
2023-05-11T21:50:53.695Z,2.90
2023-05-11T21:54:55.174Z,3.33
2023-05-11T21:58:56.644Z,3.05
2023-05-11T22:02:58.139Z,3.50
2023-05-11T22:07:01.229Z,3.30
2023-05-11T22:11:02.811Z,3.50
2023-05-11T22:15:06.527Z,3.78
2023-05-11T22:19:08.724Z,3.75
2023-05-11T22:23:10.282Z,3.55
2023-05-11T22:27:15.401Z,3.35
2023-05-11T22:31:16.909Z,3.10
2023-05-11T22:35:18.370Z,3.25
2023-05-11T22:39:19.980Z,3.13
2023-05-11T22:43:21.909Z,3.65
2023-05-11T22:47:23.668Z,3.28
2023-05-11T22:51:25.226Z,3.58
2023-05-11T22:55:26.637Z,3.40
2023-05-11T22:59:28.070Z,3.42
2023-05-11T23:03:29.692Z,3.40
2023-05-11T23:07:31.549Z,3.30
2023-05-11T23:11:32.996Z,4.13
2023-05-11T23:15:34.432Z,3.53
2023-05-11T23:19:36.023Z,3.17
2023-05-11T23:23:37.632Z,3.58
2023-05-11T23:27:39.117Z,3.90
2023-05-11T23:31:41.222Z,3.75
2023-05-11T23:35:42.819Z,4.00
2023-05-11T23:39:44.368Z,3.53
2023-05-11T23:43:45.855Z,3.55
2023-05-11T23:47:47.380Z,3.28
2023-05-11T23:51:48.882Z,3.92
2023-05-11T23:55:50.360Z,4.00
2023-05-11T23:59:51.830Z,3.53
